createdAt,value
2019-05-05T00:01:34.465Z,100070.63
2019-05-05T00:04:25.454Z,100065.03
2019-05-05T00:06:57.837Z,100065.03
2019-05-05T00:09:30.324Z,100072.34
2019-05-05T00:12:25.169Z,100080.28
2019-05-05T00:15:16.358Z,100079.28
2019-05-05T00:17:49.398Z,100077.05
2019-05-05T00:20:21.908Z,100079.80
2019-05-05T00:22:54.611Z,100081.64
2019-05-05T00:25:26.488Z,100094.00
2019-05-05T00:27:58.878Z,100094.84
2019-05-05T00:30:30.827Z,100099.90
2019-05-05T00:33:05.535Z,100095.35
2019-05-05T00:35:38.320Z,100101.30
2019-05-05T00:38:11.469Z,100101.30
2019-05-05T00:40:44.308Z,100103.18
2019-05-05T00:43:16.881Z,100105.05
2019-05-05T00:45:51.507Z,100098.06
2019-05-05T00:48:36.524Z,100101.94
2019-05-05T00:51:09.334Z,100114.47
2019-05-05T00:53:41.898Z,100120.09
2019-05-05T00:56:14.454Z,100127.04
2019-05-05T00:58:51.899Z,100135.18
2019-05-05T01:01:45.802Z,100127.72
2019-05-05T01:04:20.656Z,100130.79
2019-05-05T01:06:54.394Z,100133.21
2019-05-05T01:09:30.006Z,100136.61
2019-05-05T01:12:04.355Z,100136.61
2019-05-05T01:14:37.336Z,100137.28
2019-05-05T01:17:09.884Z,100148.81
2019-05-05T01:19:41.983Z,100150.36
2019-05-05T01:22:14.882Z,100152.17
2019-05-05T01:24:46.907Z,100153.20
2019-05-05T01:27:18.852Z,100162.73
2019-05-05T01:29:50.854Z,100169.19
2019-05-05T01:32:27.747Z,100174.26
2019-05-05T01:34:58.697Z,100168.48
2019-05-05T01:37:39.454Z,100174.75
2019-05-05T01:40:24.836Z,100174.39
2019-05-05T01:42:56.863Z,100185.92
2019-05-05T01:45:29.322Z,100190.84
2019-05-05T01:48:02.332Z,100195.09
2019-05-05T01:50:35.047Z,100198.16
2019-05-05T01:53:07.851Z,100207.14
2019-05-05T01:55:40.665Z,100201.38
2019-05-05T01:58:12.546Z,100204.26
2019-05-05T02:00:45.245Z,100212.89
2019-05-05T02:03:17.900Z,100213.73
2019-05-05T02:05:50.322Z,100221.03
2019-05-05T02:08:24.424Z,100222.75
2019-05-05T02:10:57.096Z,100242.06
2019-05-05T02:13:29.735Z,100242.06
2019-05-05T02:16:00.730Z,100234.27
2019-05-05T02:18:34.536Z,100234.63
2019-05-05T02:21:08.862Z,100234.75
2019-05-05T02:23:41.312Z,100240.87
2019-05-05T02:26:15.294Z,100237.14
2019-05-05T02:29:04.933Z,100245.80
2019-05-05T02:31:55.613Z,100249.04
2019-05-05T02:34:30.345Z,100243.26
2019-05-05T02:37:05.263Z,100243.26
2019-05-05T02:39:39.316Z,100253.58
2019-05-05T02:42:10.837Z,100253.58
2019-05-05T02:44:45.632Z,100252.41
2019-05-05T02:47:41.584Z,100254.58
2019-05-05T02:50:15.565Z,100256.16
2019-05-05T02:52:46.681Z,100256.16
2019-05-05T02:55:18.543Z,100269.03
2019-05-05T02:57:50.843Z,100274.95
2019-05-05T03:00:40.601Z,100276.98
2019-05-05T03:03:13.472Z,100279.38
2019-05-05T03:05:45.862Z,100278.70
2019-05-05T03:08:18.586Z,100278.70
2019-05-05T03:10:50.800Z,100282.77
2019-05-05T03:13:24.306Z,100282.77
2019-05-05T03:16:23.734Z,100283.77
2019-05-05T03:18:55.855Z,100288.70
2019-05-05T03:21:27.986Z,100292.90
2019-05-05T03:24:00.330Z,100301.89
2019-05-05T03:26:33.997Z,100312.56
2019-05-05T03:29:09.509Z,100318.83
2019-05-05T03:31:45.443Z,100318.53
2019-05-05T03:34:16.635Z,100319.38
2019-05-05T03:36:48.670Z,100319.72
2019-05-05T03:39:25.592Z,100317.69
2019-05-05T03:42:04.765Z,100318.20
2019-05-05T03:44:45.538Z,100313.97
2019-05-05T03:47:18.277Z,100318.03
2019-05-05T03:49:50.844Z,100318.03
2019-05-05T03:52:24.476Z,100318.72
2019-05-05T03:54:57.312Z,100323.47
2019-05-05T03:57:29.853Z,100323.47
2019-05-05T04:00:04.315Z,100328.52
2019-05-05T04:02:51.093Z,100327.83
2019-05-05T04:05:42.088Z,100327.83
2019-05-05T04:08:14.628Z,100332.91
2019-05-05T04:10:46.871Z,100333.45
2019-05-05T04:13:19.858Z,100333.45
2019-05-05T04:16:10.779Z,100327.00
2019-05-05T04:18:48.993Z,100322.77
2019-05-05T04:21:31.333Z,100329.40
2019-05-05T04:23:55.313Z,100330.74
2019-05-05T04:26:27.878Z,100332.95
2019-05-05T04:29:02.314Z,100327.64
2019-05-05T04:31:35.797Z,100338.84
2019-05-05T04:34:08.324Z,100338.84
2019-05-05T04:36:40.865Z,100338.67
2019-05-05T04:39:14.403Z,100336.97
2019-05-05T04:41:46.864Z,100340.36
2019-05-05T04:44:18.863Z,100345.09
2019-05-05T04:46:54.568Z,100343.75
2019-05-05T04:49:35.273Z,100346.64
2019-05-05T04:52:10.772Z,100348.34
2019-05-05T04:54:47.768Z,100349.87
2019-05-05T04:57:19.288Z,100354.09
2019-05-05T04:59:53.925Z,100351.76
2019-05-05T05:02:44.741Z,100351.24
2019-05-05T05:05:29.284Z,100361.88
2019-05-05T05:08:03.265Z,100359.39
2019-05-05T05:10:34.744Z,100365.81
2019-05-05T05:13:06.830Z,100366.40
2019-05-05T05:15:38.914Z,100361.09
2019-05-05T05:18:15.741Z,100367.32
2019-05-05T05:20:48.858Z,100370.62
2019-05-05T05:23:20.831Z,100374.45
2019-05-05T05:25:54.397Z,100380.35
2019-05-05T05:28:26.837Z,100387.47
2019-05-05T05:30:59.348Z,100387.47
2019-05-05T05:33:31.871Z,100396.67
2019-05-05T05:36:04.163Z,100397.55
2019-05-05T05:38:37.388Z,100401.81
2019-05-05T05:41:28.398Z,100410.16
2019-05-05T05:44:19.581Z,100408.30
2019-05-05T05:47:00.337Z,100413.66
2019-05-05T05:49:39.560Z,100413.66
2019-05-05T05:52:18.552Z,100415.69
2019-05-05T05:54:44.963Z,100418.61
2019-05-05T05:57:17.924Z,100427.13
2019-05-05T05:59:50.337Z,100430.71
2019-05-05T06:02:24.204Z,100432.94
2019-05-05T06:04:56.865Z,100434.49
2019-05-05T06:07:29.397Z,100440.95
2019-05-05T06:10:04.101Z,100441.30
2019-05-05T06:12:36.919Z,100447.56
2019-05-05T06:15:09.391Z,100451.47
2019-05-05T06:17:43.486Z,100450.98
2019-05-05T06:20:14.761Z,100453.37
2019-05-05T06:22:46.853Z,100452.17
2019-05-05T06:25:19.624Z,100455.73
2019-05-05T06:27:50.750Z,100463.53
2019-05-05T06:30:24.401Z,100461.17
2019-05-05T06:32:56.902Z,100452.32
2019-05-05T06:35:45.833Z,100453.81
2019-05-05T06:38:17.906Z,100450.94
2019-05-05T06:41:11.909Z,100459.91
2019-05-05T06:44:18.382Z,100455.59
2019-05-05T06:47:19.089Z,100456.64
2019-05-05T06:49:53.648Z,100456.86
2019-05-05T06:52:25.897Z,100453.30
2019-05-05T06:54:59.365Z,100453.30
2019-05-05T06:57:31.899Z,100450.23
2019-05-05T07:00:05.319Z,100449.55
2019-05-05T07:02:38.024Z,100447.67
2019-05-05T07:05:10.413Z,100447.67
2019-05-05T07:07:43.592Z,100453.40
2019-05-05T07:10:14.841Z,100462.07
2019-05-05T07:12:47.455Z,100456.11
2019-05-05T07:15:20.235Z,100459.38
2019-05-05T07:17:53.566Z,100461.27
2019-05-05T07:20:26.379Z,100460.06
2019-05-05T07:23:02.380Z,100460.06
2019-05-05T07:25:42.047Z,100467.19
2019-05-05T07:28:05.919Z,100464.30
2019-05-05T07:30:38.833Z,100466.70
2019-05-05T07:33:11.291Z,100470.36
2019-05-05T07:35:57.857Z,100463.59
2019-05-05T07:38:25.897Z,100466.43
2019-05-05T07:40:58.096Z,100465.20
2019-05-05T07:43:30.479Z,100469.48
2019-05-05T07:46:04.456Z,100470.36
2019-05-05T07:48:36.893Z,100472.03
2019-05-05T07:51:09.277Z,100472.03
2019-05-05T07:53:44.035Z,100476.44
2019-05-05T07:56:14.791Z,100482.34
2019-05-05T07:58:46.892Z,100481.67
2019-05-05T08:01:19.058Z,100483.03
2019-05-05T08:03:51.328Z,100494.11
2019-05-05T08:06:24.328Z,100492.39
2019-05-05T08:08:56.836Z,100492.88
2019-05-05T08:11:56.738Z,100491.15
2019-05-05T08:14:27.489Z,100498.84
2019-05-05T08:19:25.686Z,100501.18
2019-05-05T08:21:56.730Z,100498.78
2019-05-05T08:25:14.692Z,100500.13
2019-05-05T08:27:59.643Z,100508.50
2019-05-05T08:30:44.131Z,100487.95
2019-05-05T08:33:16.907Z,100487.95
2019-05-05T08:35:49.045Z,100503.20
2019-05-05T08:38:21.539Z,100505.78
2019-05-05T08:40:54.455Z,100518.19
2019-05-05T08:43:36.332Z,100521.59
2019-05-05T08:46:15.910Z,100521.59
2019-05-05T08:48:48.326Z,100518.02
2019-05-05T08:51:21.651Z,100514.79
2019-05-05T08:53:54.605Z,100514.08
2019-05-05T08:56:27.440Z,100514.08
2019-05-05T08:59:00.702Z,100512.91
2019-05-05T09:01:34.310Z,100511.39
2019-05-05T09:04:06.831Z,100511.87
2019-05-05T09:06:39.402Z,100508.83
2019-05-05T09:09:14.262Z,100506.94
2019-05-05T09:11:46.093Z,100512.90
2019-05-05T09:14:19.330Z,100515.12
2019-05-05T09:16:56.344Z,100519.38
2019-05-05T09:19:29.351Z,100518.14
2019-05-05T09:22:04.868Z,100508.83
2019-05-05T09:24:44.541Z,100508.83
2019-05-05T09:27:28.019Z,100510.55
2019-05-05T09:29:58.807Z,100514.31
2019-05-05T09:32:31.094Z,100514.31
2019-05-05T09:35:04.745Z,100509.88
2019-05-05T09:37:37.379Z,100508.72
2019-05-05T09:40:10.027Z,100500.43
2019-05-05T09:42:44.276Z,100506.84
2019-05-05T09:45:16.832Z,100492.52
2019-05-05T09:47:48.884Z,100492.52
2019-05-05T09:50:23.742Z,100498.94
2019-05-05T09:52:56.549Z,100497.41
2019-05-05T09:55:29.071Z,100508.09
2019-05-05T09:58:01.396Z,100512.54
2019-05-05T10:00:37.595Z,100514.91
2019-05-05T10:03:10.096Z,100499.82
2019-05-05T10:05:43.303Z,100499.82
2019-05-05T10:08:34.803Z,100520.19
2019-05-05T10:11:06.447Z,100525.63
2019-05-05T10:13:38.061Z,100527.14
2019-05-05T10:16:09.770Z,100526.46
2019-05-05T10:18:40.597Z,100524.58
2019-05-05T10:21:13.808Z,100525.63
2019-05-05T10:23:47.380Z,100527.15
2019-05-05T10:26:19.302Z,100526.98
2019-05-05T10:28:53.589Z,100527.14
2019-05-05T10:31:25.346Z,100535.63
2019-05-05T10:34:00.708Z,100535.63
2019-05-05T10:36:33.639Z,100533.91
2019-05-05T10:39:13.984Z,100527.98
2019-05-05T10:41:45.771Z,100529.34
2019-05-05T10:44:16.656Z,100530.91
2019-05-05T10:46:48.584Z,100533.67
2019-05-05T10:49:20.316Z,100532.13
2019-05-05T10:51:51.820Z,100532.13
2019-05-05T10:54:23.977Z,100529.39
2019-05-05T10:56:55.737Z,100535.63
2019-05-05T10:59:29.762Z,100534.95
2019-05-05T11:02:00.498Z,100531.42
2019-05-05T11:04:33.558Z,100516.62
2019-05-05T11:07:04.535Z,100516.62
2019-05-05T11:09:37.309Z,100533.02
2019-05-05T11:12:08.922Z,100530.81
2019-05-05T11:14:40.413Z,100527.73
2019-05-05T11:17:14.218Z,100524.84
2019-05-05T11:19:45.761Z,100517.88
2019-05-05T11:22:19.940Z,100517.88
2019-05-05T11:24:58.341Z,100521.97
2019-05-05T11:27:25.299Z,100515.84
2019-05-05T11:30:16.422Z,100519.56
2019-05-05T11:33:06.069Z,100513.84
2019-05-05T11:35:56.855Z,100512.95
2019-05-05T11:38:29.300Z,100511.77
2019-05-05T11:41:01.305Z,100512.61
2019-05-05T11:43:33.824Z,100512.61
2019-05-05T11:46:05.749Z,100514.17
2019-05-05T11:48:36.447Z,100514.16
2019-05-05T11:51:08.619Z,100511.76
2019-05-05T11:53:40.705Z,100504.02
2019-05-05T11:56:11.612Z,100504.02
2019-05-05T11:58:44.231Z,100518.66
2019-05-05T12:01:16.342Z,100523.06
2019-05-05T12:03:48.257Z,100523.06
2019-05-05T12:06:19.880Z,100523.53
2019-05-05T12:08:51.809Z,100529.37
2019-05-05T12:11:23.995Z,100527.19
2019-05-05T12:13:56.038Z,100529.72
2019-05-05T12:16:34.483Z,100523.62
2019-05-05T12:19:10.703Z,100521.09
2019-05-05T12:21:41.587Z,100517.30
2019-05-05T12:24:22.061Z,100527.79
2019-05-05T12:27:13.999Z,100527.79
2019-05-05T12:29:50.072Z,100511.52
2019-05-05T12:32:24.037Z,100511.52
2019-05-05T12:34:55.374Z,100522.22
2019-05-05T12:37:27.160Z,100522.22
2019-05-05T12:39:58.817Z,100523.44
2019-05-05T12:42:30.597Z,100519.20
2019-05-05T12:45:05.487Z,100523.23
2019-05-05T12:48:02.306Z,100523.23
2019-05-05T12:50:34.064Z,100516.11
2019-05-05T12:53:05.766Z,100520.37
2019-05-05T12:55:41.322Z,100517.61
2019-05-05T12:58:09.790Z,100515.81
2019-05-05T13:00:43.561Z,100513.11
2019-05-05T13:03:15.307Z,100512.13
2019-05-05T13:05:46.850Z,100515.60
2019-05-05T13:08:18.429Z,100517.75
2019-05-05T13:10:50.260Z,100512.88
2019-05-05T13:13:21.840Z,100514.33
2019-05-05T13:15:53.712Z,100522.71
2019-05-05T13:18:25.749Z,100512.09
2019-05-05T13:21:09.359Z,100511.56
2019-05-05T13:23:51.497Z,100508.59
2019-05-05T13:26:29.486Z,100505.23
2019-05-05T13:29:01.417Z,100511.42
2019-05-05T13:31:33.772Z,100515.52
2019-05-05T13:34:05.797Z,100518.42
2019-05-05T13:36:37.638Z,100516.28
2019-05-05T13:39:09.719Z,100519.08
2019-05-05T13:41:40.481Z,100514.46
2019-05-05T13:44:18.430Z,100519.94
2019-05-05T13:46:50.048Z,100520.07
2019-05-05T13:49:31.032Z,100517.61
2019-05-05T13:52:04.878Z,100523.47
2019-05-05T13:54:36.718Z,100522.34
2019-05-05T13:57:07.519Z,100523.69
2019-05-05T13:59:39.296Z,100516.22
2019-05-05T14:02:10.870Z,100520.91
2019-05-05T14:04:43.834Z,100527.03
2019-05-05T14:07:15.869Z,100518.56
2019-05-05T14:09:47.741Z,100512.80
2019-05-05T14:12:19.452Z,100518.09
2019-05-05T14:14:51.412Z,100517.58
2019-05-05T14:17:23.128Z,100515.37
2019-05-05T14:20:05.161Z,100511.81
2019-05-05T14:22:28.414Z,100509.77
2019-05-05T14:25:09.306Z,100503.12
2019-05-05T14:27:40.847Z,100507.28
2019-05-05T14:30:31.371Z,100505.13
2019-05-05T14:33:03.763Z,100509.54
2019-05-05T14:35:45.730Z,100510.77
2019-05-05T14:38:23.588Z,100506.66
2019-05-05T14:40:55.415Z,100506.34
2019-05-05T14:43:27.062Z,100512.69
2019-05-05T14:45:58.775Z,100517.72
2019-05-05T14:48:30.333Z,100510.27
2019-05-05T14:51:03.923Z,100509.91
2019-05-05T14:53:36.765Z,100513.22
2019-05-05T14:56:08.359Z,100511.64
2019-05-05T14:58:41.295Z,100507.86
2019-05-05T15:01:14.424Z,100511.27
2019-05-05T15:03:46.573Z,100489.62
2019-05-05T15:06:43.832Z,100505.20
2019-05-05T15:09:33.495Z,100497.94
2019-05-05T15:12:23.562Z,100497.94
2019-05-05T15:14:55.304Z,100504.16
2019-05-05T15:17:26.795Z,100497.71
2019-05-05T15:19:58.747Z,100493.64
2019-05-05T15:22:30.260Z,100497.25
2019-05-05T15:25:04.054Z,100494.02
2019-05-05T15:27:35.363Z,100488.09
2019-05-05T15:30:08.294Z,100488.09
2019-05-05T15:32:40.057Z,100493.80
2019-05-05T15:35:11.771Z,100501.23
2019-05-05T15:37:43.656Z,100492.63
2019-05-05T15:40:14.479Z,100492.63
2019-05-05T15:42:46.302Z,100492.50
2019-05-05T15:45:18.778Z,100495.21
2019-05-05T15:47:50.743Z,100489.25
2019-05-05T15:50:22.408Z,100500.50
2019-05-05T15:52:58.808Z,100501.85
2019-05-05T15:55:30.621Z,100501.34
2019-05-05T15:58:03.612Z,100480.41
2019-05-05T16:00:34.471Z,100480.41
2019-05-05T16:03:07.357Z,100500.97
2019-05-05T16:05:39.802Z,100492.70
2019-05-05T16:08:13.984Z,100498.77
2019-05-05T16:10:46.537Z,100501.13
2019-05-05T16:13:18.744Z,100503.80
2019-05-05T16:16:08.396Z,100495.98
2019-05-05T16:19:05.756Z,100496.50
2019-05-05T16:21:47.378Z,100492.28
2019-05-05T16:24:24.763Z,100501.85
2019-05-05T16:26:59.786Z,100502.55
2019-05-05T16:29:33.652Z,100508.68
2019-05-05T16:32:17.899Z,100508.03
2019-05-05T16:34:39.297Z,100509.05
2019-05-05T16:37:11.301Z,100511.95
2019-05-05T16:39:43.959Z,100505.07
2019-05-05T16:42:15.752Z,100511.83
2019-05-05T16:44:46.934Z,100513.94
2019-05-05T16:47:18.789Z,100510.58
2019-05-05T16:49:50.414Z,100504.32
2019-05-05T16:52:28.559Z,100504.84
2019-05-05T16:55:05.443Z,100506.72
2019-05-05T16:57:37.314Z,100506.25
2019-05-05T17:00:09.573Z,100505.22
2019-05-05T17:02:41.303Z,100489.31
2019-05-05T17:05:13.741Z,100489.31
2019-05-05T17:07:45.582Z,100511.76
2019-05-05T17:10:17.277Z,100506.00
2019-05-05T17:12:49.835Z,100506.00
2019-05-05T17:15:40.324Z,100507.56
2019-05-05T17:18:35.193Z,100505.37
2019-05-05T17:21:18.078Z,100504.02
2019-05-05T17:23:51.035Z,100504.02
2019-05-05T17:26:24.313Z,100506.94
2019-05-05T17:28:56.907Z,100505.43
2019-05-05T17:31:29.355Z,100498.95
2019-05-05T17:34:54.312Z,100506.48
2019-05-05T17:37:26.843Z,100503.11
2019-05-05T17:40:41.117Z,100506.67
2019-05-05T17:43:36.392Z,100509.88
2019-05-05T17:46:27.674Z,100512.80
2019-05-05T17:49:18.294Z,100518.91
2019-05-05T17:52:00.241Z,100515.52
2019-05-05T17:54:35.836Z,100520.83
2019-05-05T17:57:36.466Z,100519.95
2019-05-05T18:00:11.570Z,100523.87
2019-05-05T18:02:54.855Z,100522.51
2019-05-05T18:05:44.843Z,100522.53
2019-05-05T18:08:39.073Z,100516.03
2019-05-05T18:11:37.676Z,100516.88
2019-05-05T18:14:19.824Z,100522.15
2019-05-05T18:16:50.884Z,100523.52
2019-05-05T18:19:24.758Z,100528.27
2019-05-05T18:21:57.334Z,100530.18
2019-05-05T18:24:29.921Z,100534.45
2019-05-05T18:27:02.029Z,100540.51
2019-05-05T18:29:34.876Z,100544.63
2019-05-05T18:32:07.489Z,100549.05
2019-05-05T18:34:40.082Z,100540.57
2019-05-05T18:37:14.562Z,100547.66
2019-05-05T18:39:50.055Z,100546.08
2019-05-05T18:42:24.695Z,100546.08
2019-05-05T18:45:00.460Z,100549.64
2019-05-05T18:47:34.162Z,100552.36
2019-05-05T18:50:06.911Z,100557.64
2019-05-05T18:52:39.322Z,100555.77
2019-05-05T18:55:20.362Z,100556.63
2019-05-05T18:57:54.170Z,100563.60
2019-05-05T19:00:46.439Z,100561.88
2019-05-05T19:03:24.557Z,100558.84
2019-05-05T19:05:59.954Z,100567.05
2019-05-05T19:08:53.721Z,100567.05
2019-05-05T19:11:17.601Z,100566.70
2019-05-05T19:13:50.846Z,100563.30
2019-05-05T19:16:23.833Z,100563.30
2019-05-05T19:18:56.376Z,100562.98
2019-05-05T19:21:34.043Z,100565.86
2019-05-05T19:24:07.829Z,100565.72
2019-05-05T19:26:39.840Z,100564.70
2019-05-05T19:29:13.524Z,100561.32
2019-05-05T19:31:46.270Z,100558.09
2019-05-05T19:34:18.924Z,100557.91
2019-05-05T19:36:51.554Z,100560.44
2019-05-05T19:39:24.287Z,100563.70
2019-05-05T19:41:56.938Z,100567.44
2019-05-05T19:44:33.819Z,100566.41
2019-05-05T19:47:16.447Z,100570.83
2019-05-05T19:50:26.870Z,100576.63
2019-05-05T19:52:58.920Z,100572.03
2019-05-05T19:55:33.790Z,100579.00
2019-05-05T19:58:06.030Z,100564.08
2019-05-05T20:00:38.671Z,100564.08
2019-05-05T20:03:10.911Z,100576.64
2019-05-05T20:05:50.408Z,100573.92
2019-05-05T20:08:39.854Z,100572.37
2019-05-05T20:11:00.441Z,100573.06
2019-05-05T20:13:32.136Z,100576.47
2019-05-05T20:16:23.585Z,100576.11
2019-05-05T20:18:55.966Z,100573.23
2019-05-05T20:21:28.343Z,100573.23
2019-05-05T20:24:00.877Z,100570.70
2019-05-05T20:26:34.875Z,100576.13
2019-05-05T20:29:13.959Z,100573.92
2019-05-05T20:31:43.350Z,100573.20
2019-05-05T20:34:37.567Z,100573.58
2019-05-05T20:37:13.962Z,100562.19
2019-05-05T20:39:46.838Z,100562.19
2019-05-05T20:42:19.098Z,100567.30
2019-05-05T20:44:54.279Z,100571.89
2019-05-05T20:47:26.381Z,100571.17
2019-05-05T20:49:59.067Z,100565.08
2019-05-05T20:52:34.472Z,100561.84
2019-05-05T20:55:07.341Z,100566.27
2019-05-05T20:57:41.418Z,100563.70
2019-05-05T21:00:16.720Z,100564.02
2019-05-05T21:02:48.265Z,100564.23
2019-05-05T21:05:20.917Z,100566.75
2019-05-05T21:07:53.867Z,100558.42
2019-05-05T21:10:26.340Z,100567.44
2019-05-05T21:12:58.877Z,100567.61
2019-05-05T21:15:33.758Z,100568.45
2019-05-05T21:18:05.356Z,100568.63
2019-05-05T21:20:38.024Z,100567.10
2019-05-05T21:23:29.057Z,100564.70
2019-05-05T21:26:08.331Z,100567.08
2019-05-05T21:28:40.880Z,100564.86
2019-05-05T21:31:14.478Z,100564.55
2019-05-05T21:33:47.318Z,100566.73
2019-05-05T21:36:20.340Z,100560.48
2019-05-05T21:38:54.867Z,100562.69
2019-05-05T21:41:26.888Z,100560.96
2019-05-05T21:44:00.041Z,100560.96
2019-05-05T21:46:34.671Z,100562.19
2019-05-05T21:49:07.373Z,100570.81
2019-05-05T21:51:58.518Z,100567.08
2019-05-05T21:54:56.399Z,100568.61
2019-05-05T21:57:50.707Z,100567.75
2019-05-05T22:00:46.506Z,100564.03
2019-05-05T22:03:24.962Z,100565.70
2019-05-05T22:05:57.337Z,100559.09
2019-05-05T22:08:29.922Z,100555.20
2019-05-05T22:11:03.930Z,100551.80
2019-05-05T22:13:36.785Z,100551.47
2019-05-05T22:16:09.076Z,100548.75
2019-05-05T22:18:41.329Z,100547.05
2019-05-05T22:21:36.658Z,100552.14
2019-05-05T22:24:20.011Z,100541.60
2019-05-05T22:26:53.910Z,100541.60
2019-05-05T22:29:25.406Z,100549.75
2019-05-05T22:31:58.458Z,100554.48
2019-05-05T22:34:30.871Z,100550.93
2019-05-05T22:37:05.721Z,100545.69
2019-05-05T22:39:36.992Z,100541.09
2019-05-05T22:42:09.866Z,100541.09
2019-05-05T22:44:41.855Z,100548.05
2019-05-05T22:47:14.002Z,100546.03
2019-05-05T22:49:46.851Z,100544.98
2019-05-05T22:52:18.912Z,100544.98
2019-05-05T22:54:51.411Z,100543.98
2019-05-05T23:00:23.846Z,100541.45
2019-05-05T23:02:49.556Z,100547.05
2019-05-05T23:05:50.333Z,100538.38
2019-05-05T23:08:24.326Z,100538.38
2019-05-05T23:10:56.848Z,100539.56
2019-05-05T23:13:28.902Z,100539.22
2019-05-05T23:16:08.567Z,100542.11
2019-05-05T23:18:40.863Z,100541.28
2019-05-05T23:21:37.390Z,100540.09
2019-05-05T23:24:28.722Z,100541.95
2019-05-05T23:26:59.682Z,100541.09
2019-05-05T23:29:31.283Z,100548.70
2019-05-05T23:32:03.855Z,100544.83
2019-05-05T23:34:36.326Z,100545.52
2019-05-05T23:37:08.881Z,100546.50
2019-05-05T23:39:41.032Z,100554.33
2019-05-05T23:42:14.690Z,100555.50
2019-05-05T23:44:46.557Z,100552.79
2019-05-05T23:47:18.884Z,100556.70
2019-05-05T23:49:50.927Z,100556.70
2019-05-05T23:52:23.988Z,100557.22
2019-05-05T23:54:56.556Z,100556.20
2019-05-05T23:57:28.978Z,100556.88
